NCAR-RAP Real-Time Weather Data

Output produced by METARs form (08 May 2021  16:44 UTC)
found at http://weather.rap.ucar.edu/surface/
 
KBNA 081553Z 30003KT 10SM OVC075 16/07 A3017 RMK AO2 SLP215 T01560067
KBNA 081453Z 03003KT 10SM OVC080 16/08 A3015 RMK AO2 SLP207 T01560078 53016
KBNA 081353Z 33003KT 10SM OVC080 15/07 A3013 RMK AO2 SLP199 T01500067
KBNA 081253Z 00000KT 10SM OVC080 15/06 A3011 RMK AO2 SLP193 T01500061
KBNA 081153Z 23003KT 10SM OVC085 14/05 A3010 RMK AO2 SLP189 T01390050 10161 20128 53015
KBNA 081053Z 00000KT 10SM OVC100 14/05 A3008 RMK AO2 SLP182 T01390050
KBNA 080953Z 32005KT 10SM OVC110 15/04 A3008 RMK AO2 SLP181 T01500039
KBNA 080853Z 25008G14KT 10SM BKN150 16/03 A3006 RMK AO2 SLP174 T01560033 50000
KBNA 080753Z 26008KT 10SM FEW085 FEW110 16/03 A3006 RMK AO2 SLP176 T01560033
KBNA 080653Z 24004KT 10SM SCT085 14/03 A3006 RMK AO2 SLP175 T01440033
KBNA 080553Z 19004KT 10SM CLR 13/03 A3006 RMK AO2 SLP174 T01330033 10194 20133 402170083 58001
KBNA 080453Z 23003KT 10SM FEW100 14/03 A3006 RMK AO2 SLP176 T01440028
KBNA 080353Z 21003KT 10SM CLR 14/04 A3006 RMK AO2 SLP175 T01390039
KBNA 080253Z 23004KT 10SM CLR 15/03 A3006 RMK AO2 SLP176 T01500033 53006
KBNA 080153Z 22003KT 10SM CLR 16/03 A3004 RMK AO2 SLP170 T01610033
KBNA 080053Z VRB05KT 10SM CLR 17/03 A3003 RMK AO2 SLP167 T01720028
KBNA 072353Z 23005KT 10SM FEW085 19/02 A3004 RMK AO2 SLP170 T01940017 10217 20194 58017
KBNA 072253Z 25009KT 220V280 10SM FEW085 21/02 A3006 RMK AO2 SLP178 T02060022
KBNA 072153Z 28011G17KT 10SM SCT085 21/02 A3008 RMK AO2 SLP182 T02110017
KBNA 072053Z 30010G17KT 10SM SCT075 21/02 A3009 RMK AO2 SLP187 T02110022 58019
KBNA 071953Z 32009G16KT 10SM FEW075 21/03 A3011 RMK AO2 SLP194 T02060028
KBNA 071853Z 32009G14KT 10SM FEW070 20/03 A3013 RMK AO2 SLP202 T02000033
KBNA 071753Z 29009G16KT 10SM FEW060 19/02 A3015 RMK AO2 WSHFT 1718 SLP206 T01940022 10200 20094 58010
KBNA 071738Z 30008G20KT 260V330 10SM FEW060 19/03 A3015 RMK AO2 WSHFT 1718 T01940028
KBNA 071653Z 29009G16KT 10SM FEW055 18/04 A3017 RMK AO2 SLP213 T01830039
KBNA 071553Z 30008KT 10SM FEW050 17/04 A3018 RMK AO2 SLP216 T01720039
KBNA 071453Z 31008KT 10SM CLR 16/03 A3018 RMK AO2 SLP218 T01560033 50009
KBNA 071353Z 27007KT 10SM CLR 13/05 A3019 RMK AO2 SLP221 T01330050
KBNA 071253Z 30006KT 10SM CLR 11/06 A3018 RMK AO2 SLP218 T01110061 $
KBNA 071153Z 28005KT 10SM CLR 09/06 A3015 RMK AO2 SLP210 70028 T00940056 10106 20083 53019 $
KBNA 071053Z VRB04KT 10SM CLR 08/05 A3013 RMK AO2 SLP201 T00830050 $
KBNA 070953Z 31009KT 10SM FEW250 09/05 A3010 RMK AO2 SLP188 T00940050 $
KBNA 070853Z 32007KT 10SM FEW250 10/06 A3010 RMK AO2 SLP188 T01000056 56005 $
KBNA 070753Z 31005KT 10SM FEW050 10/07 A3010 RMK AO2 SLP189 T01000072 $
KBNA 070653Z 31008KT 10SM BKN048 BKN055 11/08 A3010 RMK AO2 SLP191 T01060083 $
KBNA 070553Z 26004KT 10SM FEW080 11/08 A3011 RMK AO2 SLP194 60000 T01060083 10128 20106 402220072 56008 $
KBNA 070453Z 26003KT 10SM CLR 11/09 A3011 RMK AO2 SLP194 T01060089 $
KBNA 070353Z 24003KT 7SM BKN070 11/09 A3011 RMK AO2 SLP194 T01110094 $
KBNA 070253Z 31005KT 10SM FEW008 OVC045 12/10 A3014 RMK AO2 RAB37E48 PRESFR SLP202 P0000 60000 T01220100 53024 $
KBNA 070240Z 34009G17KT 7SM -RA SCT008 BKN037 OVC065 12/10 A3015 RMK AO2 RAB37 P0000 T01220100 $
KBNA 070153Z 00000KT 10SM FEW110 11/09 A3010 RMK AO2 SLP192 T01110089 $
KBNA 070053Z 16003KT 10SM FEW030 BKN110 12/09 A3008 RMK AO2 SLP186 T01170094 $
KBNA 062353Z 00000KT 10SM FEW055 BKN070 BKN090 12/09 A3006 RMK AO2 PK WND 31029/2255 RAE41 TSE12 SLP179 P0018 60028 T01220094 10222 20122 50012 $
KBNA 062325Z 33007G18KT 3SM -RA BR OVC055 12/09 A3009 RMK AO2 PK WND 31029/2255 TSE12 TS DSPTD P0017 T01220094 $
KBNA 062312Z 31013G24KT 2SM RA BR BKN038 OVC060 12/09 A3010 RMK AO2 PK WND 31029/2255 SFC VIS 2 1/2 LTG DSNT S TSE12 TS DSPTD P0011 T01220094 $
KBNA 062253Z 31025G42KT 1 1/2SM +TSRA FEW023 BKN032CB OVC075 12/09 A3010 RMK AO2 PK WND 33042/2245 TWR VIS 2 LTG DSNT SW AND W RAB31 TSB31 SLP191 OCNL LTGICCC OHD TS OHD MOV SE P0010 T01220094 $
KBNA 062244Z 31027G42KT 2SM R02L/6000VP6000FT TSRA FEW025 BKN070CB OVC085 13/09 A3008 RMK AO2 PK WND 33042/2235 LTG DSNT SW AND W RAB31 TSB31 OCNL LTGICCA OHD TS OHD MOV SE P0002 T01330094
KBNA 062234Z 29010G19KT 10SM -TSRA BKN050CB BKN070 OVC100 19/06 A3006 RMK AO2 PK WND 26041/2234 LTG DSNT SW-NW RAB31 TSB31 PRESRR OCNL LTGICCA SW-NW TS SW-NW MOV SE P0000 T01890061
KBNA 062153Z 26006KT 10SM SCT160 BKN200 21/04 A3002 RMK AO2 LTG DSNT W AND NW SLP163 T02060044
KBNA 062053Z 00000KT 10SM FEW110 SCT250 22/04 A3003 RMK AO2 SLP165 T02170039 56036
KBNA 061953Z 27006KT 10SM SCT110 21/03 A3006 RMK AO2 SLP177 T02110028
KBNA 061853Z 00000KT 10SM FEW120 SCT250 20/03 A3010 RMK AO2 SLP189 T02000033
KBNA 061753Z 32003KT 10SM FEW200 FEW250 20/03 A3013 RMK AO2 SLP202 T02000033 10206 20100 58023
KBNA 061653Z 33004KT 10SM FEW055 FEW200 18/03 A3017 RMK AO2 SLP213 T01780033